sensor_id;sensor_type;location;lat;lon;timestamp;P1;durP1;ratioP1;P2;durP2;ratioP2
1174;SDS011;576;48.418;10.074;2022-09-03T00:01:18;3.20;;;2.90;;
1174;SDS011;576;48.418;10.074;2022-09-03T00:03:51;2.77;;;2.57;;
1174;SDS011;576;48.418;10.074;2022-09-03T00:06:24;2.77;;;2.57;;
1174;SDS011;576;48.418;10.074;2022-09-03T00:08:59;3.00;;;2.80;;
1174;SDS011;576;48.418;10.074;2022-09-03T00:11:32;4.70;;;3.20;;
1174;SDS011;576;48.418;10.074;2022-09-03T00:14:06;3.20;;;2.83;;
1174;SDS011;576;48.418;10.074;2022-09-03T00:16:42;3.40;;;3.17;;
1174;SDS011;576;48.418;10.074;2022-09-03T00:19:15;4.60;;;3.30;;
1174;SDS011;576;48.418;10.074;2022-09-03T00:21:48;4.00;;;3.03;;
1174;SDS011;576;48.418;10.074;2022-09-03T00:24:22;2.97;;;2.67;;
1174;SDS011;576;48.418;10.074;2022-09-03T00:26:54;2.83;;;2.63;;
1174;SDS011;576;48.418;10.074;2022-09-03T00:29:28;3.00;;;2.80;;
1174;SDS011;576;48.418;10.074;2022-09-03T00:32:04;2.70;;;2.50;;
1174;SDS011;576;48.418;10.074;2022-09-03T00:34:38;3.73;;;3.43;;
1174;SDS011;576;48.418;10.074;2022-09-03T00:37:08;2.80;;;2.60;;
1174;SDS011;576;48.418;10.074;2022-09-03T00:39:41;4.20;;;3.30;;
1174;SDS011;576;48.418;10.074;2022-09-03T00:42:14;2.93;;;2.73;;
1174;SDS011;576;48.418;10.074;2022-09-03T00:44:54;4.50;;;4.20;;
1174;SDS011;576;48.418;10.074;2022-09-03T00:47:38;2.90;;;2.70;;
1174;SDS011;576;48.418;10.074;2022-09-03T00:50:14;2.80;;;2.60;;
1174;SDS011;576;48.418;10.074;2022-09-03T00:52:51;3.33;;;3.10;;
1174;SDS011;576;48.418;10.074;2022-09-03T00:55:28;3.13;;;2.93;;
1174;SDS011;576;48.418;10.074;2022-09-03T00:58:16;3.17;;;2.97;;
1174;SDS011;576;48.418;10.074;2022-09-03T01:00:56;3.10;;;2.87;;
1174;SDS011;576;48.418;10.074;2022-09-03T01:03:27;3.50;;;3.20;;
1174;SDS011;576;48.418;10.074;2022-09-03T01:06:09;3.30;;;3.00;;
1174;SDS011;576;48.418;10.074;2022-09-03T01:08:52;3.40;;;3.20;;
1174;SDS011;576;48.418;10.074;2022-09-03T01:11:31;3.70;;;3.40;;
1174;SDS011;576;48.418;10.074;2022-09-03T01:14:10;3.00;;;2.80;;
1174;SDS011;576;48.418;10.074;2022-09-03T01:16:50;3.73;;;3.20;;
1174;SDS011;576;48.418;10.074;2022-09-03T01:19:34;3.00;;;2.80;;
1174;SDS011;576;48.418;10.074;2022-09-03T01:25:31;3.37;;;3.17;;
1174;SDS011;576;48.418;10.074;2022-09-03T01:28:18;3.10;;;2.90;;
1174;SDS011;576;48.418;10.074;2022-09-03T01:31:00;3.67;;;3.37;;
1174;SDS011;576;48.418;10.074;2022-09-03T01:33:48;3.37;;;3.07;;
1174;SDS011;576;48.418;10.074;2022-09-03T01:36:24;4.00;;;3.70;;
1174;SDS011;576;48.418;10.074;2022-09-03T01:39:00;3.10;;;2.90;;
1174;SDS011;576;48.418;10.074;2022-09-03T01:41:33;3.00;;;2.80;;
1174;SDS011;576;48.418;10.074;2022-09-03T01:44:35;3.50;;;3.17;;
1174;SDS011;576;48.418;10.074;2022-09-03T01:47:20;3.33;;;3.13;;
1174;SDS011;576;48.418;10.074;2022-09-03T01:49:59;3.37;;;3.07;;
1174;SDS011;576;48.418;10.074;2022-09-03T01:52:35;4.40;;;3.30;;
1174;SDS011;576;48.418;10.074;2022-09-03T01:55:17;2.67;;;2.57;;
1174;SDS011;576;48.418;10.074;2022-09-03T01:57:57;3.87;;;3.47;;
1174;SDS011;576;48.418;10.074;2022-09-03T02:00:30;4.03;;;2.73;;
1174;SDS011;576;48.418;10.074;2022-09-03T02:03:01;4.10;;;3.73;;
1174;SDS011;576;48.418;10.074;2022-09-03T02:05:32;3.20;;;3.00;;
1174;SDS011;576;48.418;10.074;2022-09-03T02:08:01;3.97;;;3.30;;
1174;SDS011;576;48.418;10.074;2022-09-03T02:10:33;3.40;;;3.20;;
1174;SDS011;576;48.418;10.074;2022-09-03T02:13:08;3.40;;;3.10;;
1174;SDS011;576;48.418;10.074;2022-09-03T02:15:41;3.63;;;3.30;;
1174;SDS011;576;48.418;10.074;2022-09-03T02:18:14;3.30;;;3.10;;
1174;SDS011;576;48.418;10.074;2022-09-03T02:20:45;4.90;;;3.30;;
1174;SDS011;576;48.418;10.074;2022-09-03T02:23:15;2.67;;;2.47;;
1174;SDS011;576;48.418;10.074;2022-09-03T02:25:50;3.00;;;2.80;;
1174;SDS011;576;48.418;10.074;2022-09-03T02:28:22;3.30;;;3.00;;
1174;SDS011;576;48.418;10.074;2022-09-03T02:30:52;3.10;;;3.00;;
1174;SDS011;576;48.418;10.074;2022-09-03T02:33:22;2.87;;;2.67;;
1174;SDS011;576;48.418;10.074;2022-09-03T02:35:50;3.63;;;3.33;;
1174;SDS011;576;48.418;10.074;2022-09-03T02:38:20;3.40;;;2.60;;
1174;SDS011;576;48.418;10.074;2022-09-03T02:40:51;3.30;;;3.00;;
1174;SDS011;576;48.418;10.074;2022-09-03T02:43:21;2.90;;;2.70;;
1174;SDS011;576;48.418;10.074;2022-09-03T02:45:56;4.00;;;3.70;;
1174;SDS011;576;48.418;10.074;2022-09-03T02:48:31;3.00;;;2.70;;
1174;SDS011;576;48.418;10.074;2022-09-03T02:50:59;2.50;;;2.40;;
1174;SDS011;576;48.418;10.074;2022-09-03T02:53:40;2.83;;;2.67;;
1174;SDS011;576;48.418;10.074;2022-09-03T02:56:08;2.93;;;2.73;;
1174;SDS011;576;48.418;10.074;2022-09-03T02:58:37;3.10;;;3.00;;
1174;SDS011;576;48.418;10.074;2022-09-03T03:01:06;3.40;;;3.20;;
1174;SDS011;576;48.418;10.074;2022-09-03T03:03:35;3.57;;;3.37;;
1174;SDS011;576;48.418;10.074;2022-09-03T03:06:06;3.13;;;2.93;;
1174;SDS011;576;48.418;10.074;2022-09-03T03:08:34;3.20;;;3.00;;
1174;SDS011;576;48.418;10.074;2022-09-03T03:11:05;3.33;;;3.10;;
1174;SDS011;576;48.418;10.074;2022-09-03T03:13:34;4.67;;;4.27;;
1174;SDS011;576;48.418;10.074;2022-09-03T03:16:05;3.20;;;2.90;;
1174;SDS011;576;48.418;10.074;2022-09-03T03:18:34;2.83;;;2.73;;
1174;SDS011;576;48.418;10.074;2022-09-03T03:21:06;3.43;;;3.17;;
1174;SDS011;576;48.418;10.074;2022-09-03T03:23:36;3.67;;;3.37;;
1174;SDS011;576;48.418;10.074;2022-09-03T03:26:09;3.27;;;3.07;;
1174;SDS011;576;48.418;10.074;2022-09-03T03:28:39;3.20;;;3.00;;
1174;SDS011;576;48.418;10.074;2022-09-03T03:31:09;3.00;;;2.80;;
1174;SDS011;576;48.418;10.074;2022-09-03T03:33:40;4.17;;;3.87;;
1174;SDS011;576;48.418;10.074;2022-09-03T03:36:09;4.03;;;3.60;;
1174;SDS011;576;48.418;10.074;2022-09-03T03:38:38;3.30;;;3.10;;
1174;SDS011;576;48.418;10.074;2022-09-03T03:41:08;3.60;;;3.30;;
1174;SDS011;576;48.418;10.074;2022-09-03T03:43:37;3.50;;;3.30;;
1174;SDS011;576;48.418;10.074;2022-09-03T03:46:05;4.30;;;4.00;;
1174;SDS011;576;48.418;10.074;2022-09-03T03:48:35;3.10;;;2.90;;
1174;SDS011;576;48.418;10.074;2022-09-03T03:51:08;3.40;;;3.20;;
1174;SDS011;576;48.418;10.074;2022-09-03T03:53:37;3.80;;;3.20;;
1174;SDS011;576;48.418;10.074;2022-09-03T03:56:06;3.30;;;3.10;;
1174;SDS011;576;48.418;10.074;2022-09-03T03:58:36;3.90;;;3.60;;
1174;SDS011;576;48.418;10.074;2022-09-03T04:01:09;3.43;;;3.23;;
1174;SDS011;576;48.418;10.074;2022-09-03T04:03:41;3.40;;;3.20;;
1174;SDS011;576;48.418;10.074;2022-09-03T04:06:11;3.57;;;3.37;;
1174;SDS011;576;48.418;10.074;2022-09-03T04:08:41;4.13;;;3.50;;
1174;SDS011;576;48.418;10.074;2022-09-03T04:11:12;3.80;;;3.50;;
1174;SDS011;576;48.418;10.074;2022-09-03T04:13:42;3.60;;;3.33;;
1174;SDS011;576;48.418;10.074;2022-09-03T04:16:12;3.50;;;3.30;;
1174;SDS011;576;48.418;10.074;2022-09-03T04:18:43;4.10;;;3.80;;
1174;SDS011;576;48.418;10.074;2022-09-03T04:21:14;3.60;;;3.30;;
1174;SDS011;576;48.418;10.074;2022-09-03T04:23:44;3.70;;;3.40;;
1174;SDS011;576;48.418;10.074;2022-09-03T04:26:15;4.27;;;3.77;;
1174;SDS011;576;48.418;10.074;2022-09-03T04:28:46;3.83;;;3.50;;
1174;SDS011;576;48.418;10.074;2022-09-03T04:31:15;4.20;;;3.93;;
1174;SDS011;576;48.418;10.074;2022-09-03T04:33:46;3.60;;;3.30;;
1174;SDS011;576;48.418;10.074;2022-09-03T04:36:15;5.30;;;3.37;;
1174;SDS011;576;48.418;10.074;2022-09-03T04:38:46;3.00;;;2.37;;
1174;SDS011;576;48.418;10.074;2022-09-03T04:41:16;2.80;;;2.60;;
1174;SDS011;576;48.418;10.074;2022-09-03T04:43:45;2.47;;;2.37;;
1174;SDS011;576;48.418;10.074;2022-09-03T04:46:17;3.30;;;2.40;;
1174;SDS011;576;48.418;10.074;2022-09-03T04:48:48;4.00;;;2.40;;
1174;SDS011;576;48.418;10.074;2022-09-03T04:51:18;3.00;;;2.70;;
1174;SDS011;576;48.418;10.074;2022-09-03T04:53:51;2.30;;;2.20;;
1174;SDS011;576;48.418;10.074;2022-09-03T04:56:22;3.53;;;2.63;;
1174;SDS011;576;48.418;10.074;2022-09-03T04:58:53;3.77;;;2.40;;
1174;SDS011;576;48.418;10.074;2022-09-03T05:01:23;2.77;;;2.57;;
1174;SDS011;576;48.418;10.074;2022-09-03T05:03:54;3.30;;;2.20;;
1174;SDS011;576;48.418;10.074;2022-09-03T05:06:23;1.97;;;1.80;;
1174;SDS011;576;48.418;10.074;2022-09-03T05:08:52;3.03;;;2.73;;
1174;SDS011;576;48.418;10.074;2022-09-03T05:11:21;3.50;;;3.20;;
1174;SDS011;576;48.418;10.074;2022-09-03T05:13:54;9.00;;;4.10;;
1174;SDS011;576;48.418;10.074;2022-09-03T05:16:23;4.10;;;2.90;;
1174;SDS011;576;48.418;10.074;2022-09-03T05:18:55;4.70;;;2.63;;
1174;SDS011;576;48.418;10.074;2022-09-03T05:21:27;3.33;;;2.40;;
1174;SDS011;576;48.418;10.074;2022-09-03T05:23:58;4.73;;;2.70;;
1174;SDS011;576;48.418;10.074;2022-09-03T05:26:28;2.50;;;2.30;;
1174;SDS011;576;48.418;10.074;2022-09-03T05:28:57;6.73;;;2.33;;
1174;SDS011;576;48.418;10.074;2022-09-03T05:31:28;2.70;;;2.50;;
1174;SDS011;576;48.418;10.074;2022-09-03T05:34:00;2.73;;;2.30;;
1174;SDS011;576;48.418;10.074;2022-09-03T05:36:31;3.90;;;2.83;;
1174;SDS011;576;48.418;10.074;2022-09-03T05:39:00;2.73;;;2.53;;
1174;SDS011;576;48.418;10.074;2022-09-03T05:41:30;4.00;;;2.83;;
1174;SDS011;576;48.418;10.074;2022-09-03T05:43:59;3.83;;;2.33;;
1174;SDS011;576;48.418;10.074;2022-09-03T05:46:29;2.40;;;2.20;;
1174;SDS011;576;48.418;10.074;2022-09-03T05:49:01;3.10;;;2.80;;
1174;SDS011;576;48.418;10.074;2022-09-03T05:51:30;6.60;;;2.70;;
1174;SDS011;576;48.418;10.074;2022-09-03T05:54:00;2.57;;;2.37;;
1174;SDS011;576;48.418;10.074;2022-09-03T05:56:29;3.00;;;2.70;;
1174;SDS011;576;48.418;10.074;2022-09-03T05:59:02;3.53;;;2.40;;
1174;SDS011;576;48.418;10.074;2022-09-03T06:01:35;3.07;;;2.07;;
1174;SDS011;576;48.418;10.074;2022-09-03T06:04:06;2.43;;;2.00;;
1174;SDS011;576;48.418;10.074;2022-09-03T06:06:37;3.40;;;2.77;;
1174;SDS011;576;48.418;10.074;2022-09-03T06:09:07;2.53;;;2.27;;
1174;SDS011;576;48.418;10.074;2022-09-03T06:11:37;3.23;;;2.47;;
1174;SDS011;576;48.418;10.074;2022-09-03T06:14:12;3.00;;;2.07;;
1174;SDS011;576;48.418;10.074;2022-09-03T06:16:42;2.60;;;2.43;;
1174;SDS011;576;48.418;10.074;2022-09-03T06:19:15;1.73;;;1.63;;
1174;SDS011;576;48.418;10.074;2022-09-03T06:21:44;2.50;;;2.30;;
1174;SDS011;576;48.418;10.074;2022-09-03T06:24:14;1.97;;;1.87;;
1174;SDS011;576;48.418;10.074;2022-09-03T06:26:43;3.90;;;2.40;;
1174;SDS011;576;48.418;10.074;2022-09-03T06:29:12;2.40;;;2.20;;
1174;SDS011;576;48.418;10.074;2022-09-03T06:31:40;3.33;;;2.83;;
1174;SDS011;576;48.418;10.074;2022-09-03T06:34:09;2.50;;;2.07;;
1174;SDS011;576;48.418;10.074;2022-09-03T06:36:39;2.53;;;2.33;;
1174;SDS011;576;48.418;10.074;2022-09-03T06:39:07;2.30;;;2.00;;
1174;SDS011;576;48.418;10.074;2022-09-03T06:41:35;3.07;;;2.70;;
1174;SDS011;576;48.418;10.074;2022-09-03T06:44:06;2.90;;;2.43;;
1174;SDS011;576;48.418;10.074;2022-09-03T06:46:38;2.40;;;2.20;;
1174;SDS011;576;48.418;10.074;2022-09-03T06:49:08;1.97;;;1.87;;
1174;SDS011;576;48.418;10.074;2022-09-03T06:51:36;2.40;;;2.20;;
1174;SDS011;576;48.418;10.074;2022-09-03T06:54:09;5.10;;;2.43;;
1174;SDS011;576;48.418;10.074;2022-09-03T06:56:39;1.80;;;1.70;;
1174;SDS011;576;48.418;10.074;2022-09-03T06:59:08;2.23;;;1.90;;
1174;SDS011;576;48.418;10.074;2022-09-03T07:01:37;3.43;;;2.13;;
1174;SDS011;576;48.418;10.074;2022-09-03T07:04:10;3.30;;;2.20;;
1174;SDS011;576;48.418;10.074;2022-09-03T07:06:40;1.90;;;1.80;;
1174;SDS011;576;48.418;10.074;2022-09-03T07:09:12;2.10;;;2.00;;
1174;SDS011;576;48.418;10.074;2022-09-03T07:11:41;2.80;;;2.13;;
1174;SDS011;576;48.418;10.074;2022-09-03T07:14:14;3.53;;;1.83;;
1174;SDS011;576;48.418;10.074;2022-09-03T07:16:43;2.00;;;1.80;;
1174;SDS011;576;48.418;10.074;2022-09-03T07:19:12;2.67;;;2.17;;
1174;SDS011;576;48.418;10.074;2022-09-03T07:21:42;2.10;;;1.90;;
1174;SDS011;576;48.418;10.074;2022-09-03T07:24:16;2.17;;;1.90;;
1174;SDS011;576;48.418;10.074;2022-09-03T07:26:45;1.90;;;1.80;;
1174;SDS011;576;48.418;10.074;2022-09-03T07:29:14;1.70;;;1.53;;
1174;SDS011;576;48.418;10.074;2022-09-03T07:31:46;1.77;;;1.67;;
1174;SDS011;576;48.418;10.074;2022-09-03T07:34:17;2.23;;;2.03;;
1174;SDS011;576;48.418;10.074;2022-09-03T07:36:49;2.13;;;1.93;;
1174;SDS011;576;48.418;10.074;2022-09-03T07:39:17;1.53;;;1.53;;
1174;SDS011;576;48.418;10.074;2022-09-03T07:41:46;2.43;;;2.33;;
1174;SDS011;576;48.418;10.074;2022-09-03T07:44:15;2.30;;;2.10;;
1174;SDS011;576;48.418;10.074;2022-09-03T07:46:46;2.10;;;1.90;;
1174;SDS011;576;48.418;10.074;2022-09-03T07:49:17;3.50;;;1.80;;
1174;SDS011;576;48.418;10.074;2022-09-03T07:51:49;2.23;;;2.07;;
1174;SDS011;576;48.418;10.074;2022-09-03T07:54:20;1.57;;;1.50;;
1174;SDS011;576;48.418;10.074;2022-09-03T07:56:49;2.00;;;1.90;;
1174;SDS011;576;48.418;10.074;2022-09-03T07:59:17;1.90;;;1.80;;
1174;SDS011;576;48.418;10.074;2022-09-03T08:01:48;2.40;;;2.20;;
1174;SDS011;576;48.418;10.074;2022-09-03T08:04:18;1.50;;;1.40;;
1174;SDS011;576;48.418;10.074;2022-09-03T08:06:48;2.60;;;2.07;;
1174;SDS011;576;48.418;10.074;2022-09-03T08:09:21;1.80;;;1.70;;
1174;SDS011;576;48.418;10.074;2022-09-03T08:11:49;2.03;;;1.80;;
1174;SDS011;576;48.418;10.074;2022-09-03T08:14:17;1.50;;;1.40;;
1174;SDS011;576;48.418;10.074;2022-09-03T08:16:46;1.83;;;1.73;;
1174;SDS011;576;48.418;10.074;2022-09-03T08:19:14;1.80;;;1.70;;
1174;SDS011;576;48.418;10.074;2022-09-03T08:21:43;1.97;;;1.87;;
1174;SDS011;576;48.418;10.074;2022-09-03T08:24:13;1.80;;;1.70;;
1174;SDS011;576;48.418;10.074;2022-09-03T08:26:42;1.83;;;1.73;;
1174;SDS011;576;48.418;10.074;2022-09-03T08:29:17;1.70;;;1.60;;
1174;SDS011;576;48.418;10.074;2022-09-03T08:31:46;2.57;;;2.37;;
1174;SDS011;576;48.418;10.074;2022-09-03T08:34:16;1.80;;;1.70;;
1174;SDS011;576;48.418;10.074;2022-09-03T08:36:44;2.37;;;2.17;;
1174;SDS011;576;48.418;10.074;2022-09-03T08:39:15;2.10;;;2.00;;
1174;SDS011;576;48.418;10.074;2022-09-03T08:41:59;1.90;;;1.80;;
1174;SDS011;576;48.418;10.074;2022-09-03T08:44:42;2.10;;;1.90;;
1174;SDS011;576;48.418;10.074;2022-09-03T08:47:14;1.73;;;1.63;;
1174;SDS011;576;48.418;10.074;2022-09-03T08:49:47;1.90;;;1.80;;
1174;SDS011;576;48.418;10.074;2022-09-03T08:52:21;1.63;;;1.53;;
1174;SDS011;576;48.418;10.074;2022-09-03T08:54:56;2.00;;;1.90;;
1174;SDS011;576;48.418;10.074;2022-09-03T08:57:29;1.90;;;1.80;;
1174;SDS011;576;48.418;10.074;2022-09-03T09:00:03;2.00;;;1.70;;
1174;SDS011;576;48.418;10.074;2022-09-03T09:02:34;2.00;;;1.90;;
1174;SDS011;576;48.418;10.074;2022-09-03T09:05:08;1.67;;;1.57;;
1174;SDS011;576;48.418;10.074;2022-09-03T09:07:50;2.30;;;2.10;;
1174;SDS011;576;48.418;10.074;2022-09-03T09:10:29;1.90;;;1.80;;
1174;SDS011;576;48.418;10.074;2022-09-03T09:13:08;2.17;;;1.83;;
1174;SDS011;576;48.418;10.074;2022-09-03T09:15:47;2.23;;;1.80;;
1174;SDS011;576;48.418;10.074;2022-09-03T09:18:22;2.17;;;1.97;;
1174;SDS011;576;48.418;10.074;2022-09-03T09:21:10;1.90;;;1.80;;
1174;SDS011;576;48.418;10.074;2022-09-03T09:23:48;2.30;;;2.00;;
1174;SDS011;576;48.418;10.074;2022-09-03T09:26:20;1.87;;;1.77;;
1174;SDS011;576;48.418;10.074;2022-09-03T09:28:51;2.57;;;2.37;;
1174;SDS011;576;48.418;10.074;2022-09-03T09:31:22;2.30;;;2.10;;
1174;SDS011;576;48.418;10.074;2022-09-03T09:33:52;2.00;;;1.90;;
1174;SDS011;576;48.418;10.074;2022-09-03T09:36:20;2.57;;;2.43;;
1174;SDS011;576;48.418;10.074;2022-09-03T09:38:49;2.23;;;2.10;;
1174;SDS011;576;48.418;10.074;2022-09-03T09:41:19;1.90;;;1.80;;
1174;SDS011;576;48.418;10.074;2022-09-03T09:43:58;2.10;;;2.00;;
1174;SDS011;576;48.418;10.074;2022-09-03T09:46:29;1.53;;;1.47;;
1174;SDS011;576;48.418;10.074;2022-09-03T09:49:06;1.90;;;1.80;;
1174;SDS011;576;48.418;10.074;2022-09-03T09:51:58;1.90;;;1.80;;
1174;SDS011;576;48.418;10.074;2022-09-03T09:54:28;2.10;;;1.97;;
1174;SDS011;576;48.418;10.074;2022-09-03T09:56:59;1.60;;;1.50;;
1174;SDS011;576;48.418;10.074;2022-09-03T09:59:29;1.90;;;1.80;;
1174;SDS011;576;48.418;10.074;2022-09-03T10:02:03;1.77;;;1.67;;
1174;SDS011;576;48.418;10.074;2022-09-03T10:04:39;2.03;;;1.93;;
1174;SDS011;576;48.418;10.074;2022-09-03T10:07:18;1.77;;;1.67;;
1174;SDS011;576;48.418;10.074;2022-09-03T10:09:58;1.73;;;1.63;;
1174;SDS011;576;48.418;10.074;2022-09-03T10:12:34;1.70;;;1.60;;
1174;SDS011;576;48.418;10.074;2022-09-03T10:15:10;3.63;;;1.70;;
1174;SDS011;576;48.418;10.074;2022-09-03T10:17:48;1.57;;;1.50;;
1174;SDS011;576;48.418;10.074;2022-09-03T10:20:24;1.67;;;1.50;;
1174;SDS011;576;48.418;10.074;2022-09-03T10:23:06;1.93;;;1.83;;
1174;SDS011;576;48.418;10.074;2022-09-03T10:25:43;2.03;;;1.93;;
1174;SDS011;576;48.418;10.074;2022-09-03T10:28:24;1.90;;;1.80;;
1174;SDS011;576;48.418;10.074;2022-09-03T10:30:57;1.97;;;1.73;;
1174;SDS011;576;48.418;10.074;2022-09-03T10:33:38;1.90;;;1.80;;
1174;SDS011;576;48.418;10.074;2022-09-03T10:36:11;1.97;;;1.87;;
1174;SDS011;576;48.418;10.074;2022-09-03T10:38:46;2.33;;;1.70;;
1174;SDS011;576;48.418;10.074;2022-09-03T10:41:24;1.90;;;1.80;;
1174;SDS011;576;48.418;10.074;2022-09-03T10:44:08;1.70;;;1.60;;
1174;SDS011;576;48.418;10.074;2022-09-03T10:47:09;1.93;;;1.83;;
1174;SDS011;576;48.418;10.074;2022-09-03T10:49:49;1.87;;;1.77;;
1174;SDS011;576;48.418;10.074;2022-09-03T10:52:27;1.83;;;1.73;;
1174;SDS011;576;48.418;10.074;2022-09-03T10:55:11;1.80;;;1.70;;
1174;SDS011;576;48.418;10.074;2022-09-03T10:57:48;2.17;;;2.07;;
1174;SDS011;576;48.418;10.074;2022-09-03T11:00:25;1.63;;;1.53;;
1174;SDS011;576;48.418;10.074;2022-09-03T11:05:59;1.57;;;1.47;;
1174;SDS011;576;48.418;10.074;2022-09-03T11:08:35;1.50;;;1.40;;
1174;SDS011;576;48.418;10.074;2022-09-03T11:11:09;2.50;;;2.30;;
1174;SDS011;576;48.418;10.074;2022-09-03T11:13:43;1.70;;;1.60;;
1174;SDS011;576;48.418;10.074;2022-09-03T11:16:18;1.87;;;1.77;;
1174;SDS011;576;48.418;10.074;2022-09-03T11:18:53;1.53;;;1.50;;
1174;SDS011;576;48.418;10.074;2022-09-03T11:21:24;4.10;;;1.93;;
1174;SDS011;576;48.418;10.074;2022-09-03T11:23:56;1.93;;;1.63;;
1174;SDS011;576;48.418;10.074;2022-09-03T11:26:34;1.97;;;1.87;;
1174;SDS011;576;48.418;10.074;2022-09-03T11:29:05;1.70;;;1.60;;
1174;SDS011;576;48.418;10.074;2022-09-03T11:31:47;1.67;;;1.57;;
1174;SDS011;576;48.418;10.074;2022-09-03T11:34:28;1.40;;;1.30;;
1174;SDS011;576;48.418;10.074;2022-09-03T11:37:06;2.30;;;2.20;;
1174;SDS011;576;48.418;10.074;2022-09-03T11:39:43;1.40;;;1.40;;
1174;SDS011;576;48.418;10.074;2022-09-03T11:42:20;1.77;;;1.67;;
1174;SDS011;576;48.418;10.074;2022-09-03T11:44:58;3.97;;;1.93;;
1174;SDS011;576;48.418;10.074;2022-09-03T11:47:41;3.00;;;1.67;;
1174;SDS011;576;48.418;10.074;2022-09-03T11:50:16;1.40;;;1.30;;
1174;SDS011;576;48.418;10.074;2022-09-03T11:52:47;2.67;;;2.20;;
1174;SDS011;576;48.418;10.074;2022-09-03T11:55:24;1.83;;;1.73;;
1174;SDS011;576;48.418;10.074;2022-09-03T11:58:09;2.10;;;1.60;;
1174;SDS011;576;48.418;10.074;2022-09-03T12:00:39;3.83;;;1.97;;
1174;SDS011;576;48.418;10.074;2022-09-03T12:03:11;2.10;;;1.90;;
1174;SDS011;576;48.418;10.074;2022-09-03T12:05:45;1.57;;;1.47;;
1174;SDS011;576;48.418;10.074;2022-09-03T12:11:25;1.70;;;1.60;;
1174;SDS011;576;48.418;10.074;2022-09-03T12:14:08;2.50;;;2.10;;
1174;SDS011;576;48.418;10.074;2022-09-03T12:16:56;1.97;;;1.87;;
1174;SDS011;576;48.418;10.074;2022-09-03T12:19:36;1.80;;;1.70;;
1174;SDS011;576;48.418;10.074;2022-09-03T12:22:11;1.67;;;1.50;;
1174;SDS011;576;48.418;10.074;2022-09-03T12:24:41;4.83;;;2.20;;
1174;SDS011;576;48.418;10.074;2022-09-03T12:27:10;2.80;;;1.50;;
1174;SDS011;576;48.418;10.074;2022-09-03T12:29:49;3.13;;;1.77;;
1174;SDS011;576;48.418;10.074;2022-09-03T12:32:23;2.23;;;1.67;;
1174;SDS011;576;48.418;10.074;2022-09-03T12:34:54;2.10;;;1.70;;
1174;SDS011;576;48.418;10.074;2022-09-03T12:37:23;1.90;;;1.80;;
1174;SDS011;576;48.418;10.074;2022-09-03T12:40:16;1.90;;;1.77;;
1174;SDS011;576;48.418;10.074;2022-09-03T12:42:46;1.67;;;1.47;;
1174;SDS011;576;48.418;10.074;2022-09-03T12:45:18;1.77;;;1.63;;
1174;SDS011;576;48.418;10.074;2022-09-03T12:47:48;1.50;;;1.40;;
1174;SDS011;576;48.418;10.074;2022-09-03T12:50:21;2.00;;;1.90;;
1174;SDS011;576;48.418;10.074;2022-09-03T12:52:51;1.70;;;1.60;;
1174;SDS011;576;48.418;10.074;2022-09-03T12:55:25;3.40;;;1.97;;
1174;SDS011;576;48.418;10.074;2022-09-03T12:58:01;1.80;;;1.70;;
1174;SDS011;576;48.418;10.074;2022-09-03T13:00:41;2.10;;;2.00;;
1174;SDS011;576;48.418;10.074;2022-09-03T13:03:14;1.87;;;1.63;;
1174;SDS011;576;48.418;10.074;2022-09-03T13:05:49;1.60;;;1.50;;
1174;SDS011;576;48.418;10.074;2022-09-03T13:08:21;1.90;;;1.80;;
1174;SDS011;576;48.418;10.074;2022-09-03T13:10:53;3.13;;;1.70;;
1174;SDS011;576;48.418;10.074;2022-09-03T13:13:23;1.97;;;1.87;;
1174;SDS011;576;48.418;10.074;2022-09-03T13:19:02;2.17;;;2.07;;
1174;SDS011;576;48.418;10.074;2022-09-03T13:21:39;1.50;;;1.40;;
1174;SDS011;576;48.418;10.074;2022-09-03T13:24:16;2.13;;;1.67;;
1174;SDS011;576;48.418;10.074;2022-09-03T13:26:56;1.40;;;1.30;;
1174;SDS011;576;48.418;10.074;2022-09-03T13:29:38;1.67;;;1.57;;
1174;SDS011;576;48.418;10.074;2022-09-03T13:32:22;2.20;;;1.80;;
1174;SDS011;576;48.418;10.074;2022-09-03T13:35:01;1.60;;;1.50;;
1174;SDS011;576;48.418;10.074;2022-09-03T13:37:36;1.57;;;1.43;;
1174;SDS011;576;48.418;10.074;2022-09-03T13:40:14;1.90;;;1.80;;
1174;SDS011;576;48.418;10.074;2022-09-03T13:42:48;1.57;;;1.47;;
1174;SDS011;576;48.418;10.074;2022-09-03T13:45:25;2.00;;;1.60;;
1174;SDS011;576;48.418;10.074;2022-09-03T13:47:59;1.53;;;1.33;;
1174;SDS011;576;48.418;10.074;2022-09-03T13:50:50;2.10;;;1.90;;
1174;SDS011;576;48.418;10.074;2022-09-03T13:53:29;1.30;;;1.30;;
1174;SDS011;576;48.418;10.074;2022-09-03T13:56:12;2.73;;;1.60;;
1174;SDS011;576;48.418;10.074;2022-09-03T13:58:59;2.53;;;1.70;;
1174;SDS011;576;48.418;10.074;2022-09-03T14:01:40;1.57;;;1.47;;
1174;SDS011;576;48.418;10.074;2022-09-03T14:04:26;1.37;;;1.27;;
1174;SDS011;576;48.418;10.074;2022-09-03T14:07:02;1.60;;;1.50;;
1174;SDS011;576;48.418;10.074;2022-09-03T14:09:39;1.70;;;1.60;;
1174;SDS011;576;48.418;10.074;2022-09-03T14:12:18;1.57;;;1.47;;
1174;SDS011;576;48.418;10.074;2022-09-03T14:14:57;4.13;;;2.30;;
1174;SDS011;576;48.418;10.074;2022-09-03T14:17:35;1.40;;;1.30;;
1174;SDS011;576;48.418;10.074;2022-09-03T14:20:10;2.10;;;1.77;;
1174;SDS011;576;48.418;10.074;2022-09-03T14:22:48;1.60;;;1.50;;
1174;SDS011;576;48.418;10.074;2022-09-03T14:25:21;1.40;;;1.40;;
1174;SDS011;576;48.418;10.074;2022-09-03T14:27:50;1.93;;;1.63;;
1174;SDS011;576;48.418;10.074;2022-09-03T14:30:24;1.77;;;1.67;;
1174;SDS011;576;48.418;10.074;2022-09-03T14:33:02;1.10;;;1.10;;
1174;SDS011;576;48.418;10.074;2022-09-03T14:35:51;1.87;;;1.77;;
1174;SDS011;576;48.418;10.074;2022-09-03T14:38:32;1.60;;;1.50;;
1174;SDS011;576;48.418;10.074;2022-09-03T14:41:30;2.30;;;1.70;;
1174;SDS011;576;48.418;10.074;2022-09-03T14:44:16;1.57;;;1.37;;
1174;SDS011;576;48.418;10.074;2022-09-03T14:47:07;1.93;;;1.80;;
1174;SDS011;576;48.418;10.074;2022-09-03T14:49:46;1.30;;;1.30;;
1174;SDS011;576;48.418;10.074;2022-09-03T14:52:34;1.70;;;1.60;;
1174;SDS011;576;48.418;10.074;2022-09-03T14:58:24;1.47;;;1.47;;
1174;SDS011;576;48.418;10.074;2022-09-03T15:01:09;1.87;;;1.77;;
1174;SDS011;576;48.418;10.074;2022-09-03T15:03:44;1.40;;;1.30;;
1174;SDS011;576;48.418;10.074;2022-09-03T15:06:31;1.40;;;1.30;;
1174;SDS011;576;48.418;10.074;2022-09-03T15:09:18;1.57;;;1.47;;
1174;SDS011;576;48.418;10.074;2022-09-03T15:11:54;1.20;;;1.10;;
1174;SDS011;576;48.418;10.074;2022-09-03T15:14:28;1.80;;;1.70;;
1174;SDS011;576;48.418;10.074;2022-09-03T15:17:16;2.07;;;1.87;;
1174;SDS011;576;48.418;10.074;2022-09-03T15:19:57;1.40;;;1.30;;
1174;SDS011;576;48.418;10.074;2022-09-03T15:22:38;1.40;;;1.33;;
1174;SDS011;576;48.418;10.074;2022-09-03T15:25:26;1.43;;;1.33;;
1174;SDS011;576;48.418;10.074;2022-09-03T15:28:10;1.20;;;1.20;;
1174;SDS011;576;48.418;10.074;2022-09-03T15:30:47;1.33;;;1.33;;
1174;SDS011;576;48.418;10.074;2022-09-03T15:33:27;1.40;;;1.30;;
1174;SDS011;576;48.418;10.074;2022-09-03T15:38:48;1.40;;;1.33;;
1174;SDS011;576;48.418;10.074;2022-09-03T15:41:25;1.27;;;1.17;;
1174;SDS011;576;48.418;10.074;2022-09-03T15:44:00;1.20;;;1.20;;
1174;SDS011;576;48.418;10.074;2022-09-03T15:46:36;1.27;;;1.23;;
1174;SDS011;576;48.418;10.074;2022-09-03T15:49:16;1.30;;;1.20;;
1174;SDS011;576;48.418;10.074;2022-09-03T15:51:57;1.33;;;1.10;;
1174;SDS011;576;48.418;10.074;2022-09-03T15:54:35;1.53;;;1.10;;
1174;SDS011;576;48.418;10.074;2022-09-03T15:57:10;1.23;;;1.23;;
1174;SDS011;576;48.418;10.074;2022-09-03T15:59:46;1.43;;;1.20;;
1174;SDS011;576;48.418;10.074;2022-09-03T16:02:22;1.37;;;1.27;;
1174;SDS011;576;48.418;10.074;2022-09-03T16:05:02;1.20;;;1.20;;
1174;SDS011;576;48.418;10.074;2022-09-03T16:07:40;1.57;;;1.47;;
1174;SDS011;576;48.418;10.074;2022-09-03T16:10:21;1.40;;;1.30;;
1174;SDS011;576;48.418;10.074;2022-09-03T16:13:04;1.37;;;1.27;;
1174;SDS011;576;48.418;10.074;2022-09-03T16:15:42;1.20;;;1.20;;
1174;SDS011;576;48.418;10.074;2022-09-03T16:18:21;0.90;;;0.90;;